createdAt,value
2019-06-01T00:00:12.411Z,23.40
2019-06-01T00:01:12.099Z,22.40
2019-06-01T00:02:12.094Z,22.60
2019-06-01T00:03:12.116Z,21.00
2019-06-01T00:04:12.077Z,22.50
2019-06-01T00:05:12.063Z,24.90
2019-06-01T00:06:12.054Z,22.60
2019-06-01T00:07:12.036Z,23.00
2019-06-01T00:08:12.018Z,22.30
2019-06-01T00:09:12.022Z,19.10
2019-06-01T00:10:12.003Z,21.10
2019-06-01T00:11:11.986Z,21.60
2019-06-01T00:12:11.975Z,21.80
2019-06-01T00:13:11.976Z,21.80
2019-06-01T00:14:11.985Z,21.90
2019-06-01T00:15:11.945Z,22.60
2019-06-01T00:16:11.931Z,20.20
2019-06-01T00:17:11.933Z,21.90
2019-06-01T00:18:11.908Z,25.10
2019-06-01T00:19:11.912Z,22.60
2019-06-01T00:20:11.915Z,22.80
2019-06-01T00:21:11.888Z,21.60
2019-06-01T00:22:11.877Z,21.90
2019-06-01T00:23:11.870Z,22.20
2019-06-01T00:24:11.870Z,22.60
2019-06-01T00:25:11.841Z,21.40
2019-06-01T00:26:11.823Z,22.90
2019-06-01T00:27:11.824Z,22.50
2019-06-01T00:28:11.803Z,19.80
2019-06-01T00:29:11.808Z,23.70
2019-06-01T00:30:26.244Z,22.50
2019-06-01T00:31:12.771Z,25.70
2019-06-01T00:32:11.765Z,21.30
2019-06-01T00:33:11.755Z,22.90
2019-06-01T00:34:11.745Z,23.10
2019-06-01T00:35:11.719Z,22.80
2019-06-01T00:36:11.722Z,22.90
2019-06-01T00:37:11.697Z,23.50
2019-06-01T00:38:11.687Z,23.40
2019-06-01T00:39:11.678Z,21.70
2019-06-01T00:40:11.689Z,28.70
2019-06-01T00:41:11.668Z,22.50
2019-06-01T00:42:11.689Z,25.00
2019-06-01T00:43:11.637Z,25.30
2019-06-01T00:44:11.629Z,22.80
2019-06-01T00:45:11.634Z,22.50
2019-06-01T00:46:11.614Z,21.80
2019-06-01T00:47:11.619Z,23.40
2019-06-01T00:48:11.587Z,22.20
2019-06-01T00:49:11.576Z,23.60
2019-06-01T00:50:11.579Z,24.80
2019-06-01T00:51:11.548Z,24.60
2019-06-01T00:52:11.621Z,25.00
2019-06-01T00:53:11.526Z,25.00
2019-06-01T00:54:11.520Z,24.10
2019-06-01T00:55:11.519Z,23.90
2019-06-01T00:56:11.494Z,22.40
2019-06-01T00:57:11.487Z,24.90
2019-06-01T00:58:11.484Z,25.80
2019-06-01T00:59:11.477Z,21.50
2019-06-01T01:00:11.492Z,25.50
2019-06-01T01:01:11.452Z,28.90
2019-06-01T01:02:11.433Z,21.00
2019-06-01T01:03:11.425Z,21.30
2019-06-01T01:04:11.403Z,25.50
2019-06-01T01:05:11.395Z,27.50
2019-06-01T01:06:11.399Z,20.90
2019-06-01T01:07:11.381Z,22.80
2019-06-01T01:08:11.401Z,22.40
2019-06-01T01:09:11.365Z,23.80
2019-06-01T01:10:11.344Z,20.80
2019-06-01T01:11:11.349Z,23.70
2019-06-01T01:12:11.313Z,19.60
2019-06-01T01:13:11.322Z,22.20
2019-06-01T01:14:11.296Z,23.40
2019-06-01T01:15:11.342Z,24.10
2019-06-01T01:16:11.309Z,27.20
2019-06-01T01:17:11.257Z,23.20
2019-06-01T01:18:11.249Z,24.70
2019-06-01T01:19:11.240Z,21.90
2019-06-01T01:20:11.224Z,23.20
2019-06-01T01:21:11.242Z,21.80
2019-06-01T01:22:11.225Z,22.90
2019-06-01T01:23:11.198Z,24.80
2019-06-01T01:24:11.192Z,23.60
2019-06-01T01:25:11.166Z,22.90
2019-06-01T01:26:11.199Z,22.20
2019-06-01T01:27:11.155Z,25.20
2019-06-01T01:28:11.140Z,22.40
2019-06-01T01:29:11.119Z,20.50
2019-06-01T01:30:11.105Z,26.70
2019-06-01T01:31:14.066Z,21.50
2019-06-01T01:32:11.103Z,24.30
2019-06-01T01:33:11.080Z,22.90
2019-06-01T01:34:11.071Z,23.40
2019-06-01T01:35:11.065Z,23.20
2019-06-01T01:36:11.060Z,21.90
2019-06-01T01:37:11.051Z,24.00
2019-06-01T01:38:11.021Z,23.00
2019-06-01T01:39:11.014Z,24.50
2019-06-01T01:40:11.000Z,23.00
2019-06-01T01:41:10.991Z,23.00
2019-06-01T01:42:11.012Z,21.20
2019-06-01T01:43:10.969Z,24.30
2019-06-01T01:44:10.954Z,21.70
2019-06-01T01:45:10.952Z,21.30
2019-06-01T01:46:10.934Z,23.00
2019-06-01T01:47:10.942Z,21.40
2019-06-01T01:48:10.922Z,21.50
2019-06-01T01:49:10.898Z,21.60
2019-06-01T01:50:10.892Z,20.80
2019-06-01T01:51:10.882Z,21.90
2019-06-01T01:52:10.885Z,22.20
2019-06-01T01:53:10.857Z,20.00
2019-06-01T01:54:10.856Z,23.30
2019-06-01T01:55:10.832Z,22.00
2019-06-01T01:56:10.823Z,22.40
2019-06-01T01:57:10.829Z,20.00
2019-06-01T01:58:10.796Z,21.80
2019-06-01T01:59:10.787Z,20.20
2019-06-01T02:00:10.786Z,22.40
2019-06-01T02:01:22.076Z,22.00
2019-06-01T02:02:11.777Z,19.50
2019-06-01T02:03:10.770Z,22.20
2019-06-01T02:04:10.736Z,21.00
2019-06-01T02:05:10.723Z,22.40
2019-06-01T02:06:10.716Z,21.40
2019-06-01T02:07:10.714Z,18.90
2019-06-01T02:08:10.696Z,22.70
2019-06-01T02:09:10.682Z,18.60
2019-06-01T02:10:10.676Z,20.70
2019-06-01T02:11:10.667Z,21.20
2019-06-01T02:12:10.663Z,20.00
2019-06-01T02:13:10.641Z,19.30
2019-06-01T02:14:10.627Z,21.90
2019-06-01T02:15:10.627Z,21.40
2019-06-01T02:16:10.609Z,20.10
2019-06-01T02:17:10.619Z,18.60
2019-06-01T02:18:10.586Z,20.90
2019-06-01T02:19:10.602Z,20.10
2019-06-01T02:20:10.558Z,17.40
2019-06-01T02:21:10.551Z,18.20
2019-06-01T02:22:10.541Z,20.00
2019-06-01T02:23:10.543Z,19.90
2019-06-01T02:24:10.516Z,20.50
2019-06-01T02:25:10.515Z,21.60
2019-06-01T02:26:10.502Z,19.60
2019-06-01T02:27:10.481Z,18.80
2019-06-01T02:28:10.487Z,20.80
2019-06-01T02:29:10.464Z,19.60
2019-06-01T02:30:10.448Z,20.80
2019-06-01T02:31:10.445Z,20.10
2019-06-01T02:32:10.433Z,18.90
2019-06-01T02:33:10.424Z,19.70
2019-06-01T02:34:10.408Z,18.80
2019-06-01T02:35:10.422Z,16.80
2019-06-01T02:36:10.384Z,18.70
2019-06-01T02:37:10.368Z,21.20
2019-06-01T02:38:10.373Z,18.70
2019-06-01T02:39:10.354Z,18.80
2019-06-01T02:40:10.348Z,20.30
2019-06-01T02:41:10.328Z,20.60
2019-06-01T02:42:10.320Z,18.70
2019-06-01T02:43:10.326Z,19.90
2019-06-01T02:44:10.304Z,19.40
2019-06-01T02:45:10.281Z,24.40
2019-06-01T02:46:10.278Z,19.70
2019-06-01T02:47:10.263Z,19.30
2019-06-01T02:48:10.271Z,19.90
2019-06-01T02:49:10.251Z,21.60
2019-06-01T02:50:10.231Z,18.70
2019-06-01T02:51:10.209Z,19.60
2019-06-01T02:52:10.199Z,19.70
2019-06-01T02:53:10.198Z,18.00
2019-06-01T02:54:10.178Z,17.30
2019-06-01T02:55:10.183Z,19.30
2019-06-01T02:56:10.170Z,20.40
2019-06-01T02:57:10.158Z,20.70
2019-06-01T02:58:10.163Z,18.00
2019-06-01T02:59:10.136Z,18.00
2019-06-01T03:00:10.121Z,19.10
2019-06-01T03:01:10.104Z,20.00
2019-06-01T03:02:13.751Z,20.40
2019-06-01T03:03:10.086Z,20.30
2019-06-01T03:04:10.094Z,22.80
2019-06-01T03:05:10.073Z,22.30
2019-06-01T03:06:10.053Z,18.90
2019-06-01T03:07:10.047Z,22.70
2019-06-01T03:08:10.029Z,20.30
2019-06-01T03:09:10.029Z,21.70
2019-06-01T03:10:10.013Z,18.90
2019-06-01T03:11:09.995Z,20.40
2019-06-01T03:12:09.981Z,19.50
2019-06-01T03:13:09.975Z,19.30
2019-06-01T03:14:09.977Z,19.60
2019-06-01T03:15:09.947Z,19.60
2019-06-01T03:16:09.943Z,22.80
2019-06-01T03:17:09.938Z,19.10
2019-06-01T03:18:09.917Z,21.60
2019-06-01T03:19:09.919Z,19.00
2019-06-01T03:20:09.906Z,21.90
2019-06-01T03:21:09.887Z,19.80
2019-06-01T03:22:09.871Z,19.80
2019-06-01T03:23:09.878Z,18.90
2019-06-01T03:24:09.854Z,19.70
2019-06-01T03:25:09.860Z,21.10
2019-06-01T03:26:09.832Z,17.90
2019-06-01T03:27:09.814Z,19.80
2019-06-01T03:28:09.812Z,18.90
2019-06-01T03:29:09.816Z,20.20
2019-06-01T03:30:12.242Z,20.30
2019-06-01T03:31:10.851Z,21.20
2019-06-01T03:32:29.157Z,19.40
2019-06-01T03:33:10.837Z,19.00
2019-06-01T03:34:11.398Z,20.40
2019-06-01T03:35:09.765Z,21.70
2019-06-01T03:36:09.717Z,18.80
2019-06-01T03:37:09.707Z,20.60
2019-06-01T03:38:09.706Z,19.30
2019-06-01T03:39:09.682Z,23.50
2019-06-01T03:40:22.904Z,21.60
2019-06-01T03:41:10.661Z,23.10
2019-06-01T03:42:09.644Z,18.20
2019-06-01T03:43:09.643Z,18.70
2019-06-01T03:44:09.626Z,21.30
2019-06-01T03:45:09.724Z,20.60
2019-06-01T03:46:09.628Z,20.90
2019-06-01T03:47:09.779Z,19.00
2019-06-01T03:48:09.581Z,18.80
2019-06-01T03:49:09.850Z,20.30
2019-06-01T03:50:09.578Z,20.90
2019-06-01T03:51:09.877Z,22.70
2019-06-01T03:52:09.534Z,17.80
2019-06-01T03:53:09.930Z,20.00
2019-06-01T03:54:10.154Z,20.80
2019-06-01T03:55:09.927Z,18.90
2019-06-01T03:56:09.508Z,20.40
2019-06-01T03:57:09.487Z,19.40
2019-06-01T03:58:09.483Z,21.20
2019-06-01T03:59:09.501Z,21.60
2019-06-01T04:00:09.545Z,17.90
2019-06-01T04:01:09.489Z,19.90
2019-06-01T04:02:09.432Z,22.50
2019-06-01T04:03:09.407Z,18.70
2019-06-01T04:04:09.446Z,22.10
2019-06-01T04:05:09.407Z,21.90
2019-06-01T04:06:09.532Z,23.70
2019-06-01T04:07:10.632Z,19.70
2019-06-01T04:08:09.728Z,18.70
2019-06-01T04:09:10.015Z,20.30
2019-06-01T04:10:10.032Z,21.20
2019-06-01T04:11:09.806Z,18.00
2019-06-01T04:12:09.784Z,20.80
2019-06-01T04:13:09.644Z,20.30
2019-06-01T04:14:09.897Z,19.80
2019-06-01T04:15:12.838Z,19.00
2019-06-01T04:16:10.269Z,18.70
2019-06-01T04:17:10.185Z,19.40
2019-06-01T04:18:10.258Z,19.80
2019-06-01T04:19:10.003Z,19.60
2019-06-01T04:20:10.192Z,22.20
2019-06-01T04:21:10.302Z,22.00
2019-06-01T04:22:10.152Z,20.30
2019-06-01T04:23:10.228Z,18.10
2019-06-01T04:24:10.233Z,19.00
2019-06-01T04:25:10.301Z,24.90
2019-06-01T04:26:10.269Z,22.00
2019-06-01T04:27:10.218Z,19.10
2019-06-01T04:28:10.278Z,20.20
2019-06-01T04:29:10.278Z,19.60
2019-06-01T04:30:09.495Z,19.40
2019-06-01T04:31:09.112Z,17.70
2019-06-01T04:32:09.123Z,18.60
2019-06-01T04:33:09.076Z,22.90
2019-06-01T04:34:09.073Z,22.10
2019-06-01T04:35:09.148Z,17.30
2019-06-01T04:36:09.060Z,20.00
2019-06-01T04:37:09.230Z,21.00
2019-06-01T04:38:09.288Z,18.50
2019-06-01T04:39:09.484Z,21.10
2019-06-01T04:40:09.551Z,20.80
2019-06-01T04:41:09.792Z,19.20
2019-06-01T04:42:09.772Z,20.20
2019-06-01T04:43:10.121Z,17.30
2019-06-01T04:44:10.034Z,19.20
2019-06-01T04:45:09.511Z,18.30
2019-06-01T04:46:10.238Z,18.80
2019-06-01T04:47:09.550Z,20.50
2019-06-01T04:48:08.933Z,18.50
2019-06-01T04:49:08.907Z,16.20
2019-06-01T04:50:08.891Z,21.30
2019-06-01T04:51:08.890Z,19.90
2019-06-01T04:52:08.918Z,17.80
2019-06-01T04:53:08.915Z,18.30
2019-06-01T04:54:08.854Z,17.40
2019-06-01T04:55:09.126Z,17.40
2019-06-01T04:56:09.104Z,17.60
2019-06-01T04:57:08.977Z,17.30
2019-06-01T04:58:09.038Z,20.80
2019-06-01T04:59:08.918Z,17.70
2019-06-01T05:00:21.449Z,17.60
2019-06-01T05:01:10.743Z,16.50
2019-06-01T05:02:09.267Z,19.40
2019-06-01T05:03:10.115Z,20.90
2019-06-01T05:04:09.087Z,17.10
2019-06-01T05:05:09.357Z,15.70
2019-06-01T05:06:09.231Z,17.50
2019-06-01T05:07:09.267Z,16.70
2019-06-01T05:08:09.369Z,16.80
2019-06-01T05:09:09.321Z,16.90
2019-06-01T05:10:09.462Z,21.20
2019-06-01T05:11:10.197Z,17.40
2019-06-01T05:12:09.327Z,16.70
2019-06-01T05:13:09.374Z,15.90
2019-06-01T05:14:09.709Z,17.00
2019-06-01T05:15:09.795Z,15.60
2019-06-01T05:16:09.936Z,17.80
2019-06-01T05:17:10.043Z,17.40
2019-06-01T05:18:08.585Z,18.00
2019-06-01T05:19:08.584Z,17.60
2019-06-01T05:20:08.564Z,17.40
2019-06-01T05:21:08.559Z,18.30
2019-06-01T05:22:08.548Z,17.80
2019-06-01T05:23:08.611Z,17.40
2019-06-01T05:24:08.869Z,19.50
2019-06-01T05:25:08.960Z,16.60
2019-06-01T05:26:08.783Z,16.90
2019-06-01T05:27:08.965Z,18.60
2019-06-01T05:28:09.087Z,20.10
2019-06-01T05:29:09.373Z,17.40
2019-06-01T05:30:09.472Z,16.00
2019-06-01T05:31:09.687Z,22.90
2019-06-01T05:32:08.455Z,17.80
2019-06-01T05:33:21.368Z,17.00
2019-06-01T05:34:09.731Z,16.70
2019-06-01T05:35:09.587Z,18.20
2019-06-01T05:36:08.400Z,20.20
2019-06-01T05:37:08.545Z,18.10
2019-06-01T05:38:08.359Z,16.40
2019-06-01T05:39:08.409Z,17.40
2019-06-01T05:40:08.494Z,19.50
2019-06-01T05:41:10.058Z,18.00
2019-06-01T05:42:08.871Z,18.20
2019-06-01T05:43:11.074Z,19.20
2019-06-01T05:44:09.311Z,19.60
2019-06-01T05:45:09.173Z,17.00
2019-06-01T05:46:08.284Z,18.60
2019-06-01T05:47:08.266Z,19.20
2019-06-01T05:48:08.260Z,20.00
2019-06-01T05:49:08.251Z,18.10
2019-06-01T05:50:08.260Z,18.70
2019-06-01T05:51:08.446Z,17.10
2019-06-01T05:52:08.244Z,16.60
2019-06-01T05:53:08.210Z,21.30
2019-06-01T05:54:08.196Z,17.50
2019-06-01T05:55:08.178Z,18.60
2019-06-01T05:56:08.174Z,18.60
2019-06-01T05:57:08.166Z,17.20
2019-06-01T05:58:08.150Z,18.90
2019-06-01T05:59:08.143Z,17.60
2019-06-01T06:00:08.124Z,16.90
2019-06-01T06:01:08.121Z,20.60
2019-06-01T06:02:08.110Z,18.20
2019-06-01T06:03:08.092Z,16.30
2019-06-01T06:04:08.104Z,19.60
2019-06-01T06:05:08.065Z,19.60
2019-06-01T06:06:08.073Z,17.10
2019-06-01T06:07:08.052Z,17.00
2019-06-01T06:08:08.043Z,18.20
2019-06-01T06:09:08.022Z,18.70
2019-06-01T06:10:08.021Z,18.40
2019-06-01T06:11:08.033Z,17.50
2019-06-01T06:12:08.001Z,18.50
2019-06-01T06:13:07.980Z,18.60
2019-06-01T06:14:07.977Z,16.90
2019-06-01T06:15:07.965Z,18.30
2019-06-01T06:16:07.968Z,22.40
2019-06-01T06:17:07.962Z,17.90
2019-06-01T06:18:07.937Z,17.10
2019-06-01T06:19:07.930Z,16.40
2019-06-01T06:20:07.921Z,20.20
2019-06-01T06:21:07.900Z,17.90
2019-06-01T06:22:07.894Z,19.60
2019-06-01T06:23:07.870Z,18.00
2019-06-01T06:24:07.869Z,20.30
2019-06-01T06:25:07.858Z,17.90
2019-06-01T06:26:07.880Z,17.00
2019-06-01T06:27:07.856Z,21.00
2019-06-01T06:28:07.808Z,19.70
2019-06-01T06:29:07.810Z,19.90
2019-06-01T06:30:07.788Z,20.80
2019-06-01T06:31:07.784Z,18.70
2019-06-01T06:32:09.318Z,21.80
2019-06-01T06:33:07.766Z,15.90
2019-06-01T06:34:07.756Z,17.20
2019-06-01T06:35:07.744Z,18.40
2019-06-01T06:36:07.733Z,16.30
2019-06-01T06:37:07.729Z,18.30
2019-06-01T06:38:07.712Z,20.40
2019-06-01T06:39:07.705Z,15.50
2019-06-01T06:40:07.695Z,16.90
2019-06-01T06:41:07.728Z,17.10
2019-06-01T06:42:07.699Z,19.10
2019-06-01T06:43:19.182Z,17.60
2019-06-01T06:44:08.643Z,17.00
2019-06-01T06:45:07.643Z,16.00
2019-06-01T06:46:07.615Z,14.80
2019-06-01T06:47:07.627Z,14.90
2019-06-01T06:48:07.605Z,13.30
2019-06-01T06:49:09.981Z,14.70
2019-06-01T06:50:07.581Z,13.30
2019-06-01T06:51:07.570Z,12.30
2019-06-01T06:52:07.564Z,12.10
2019-06-01T06:53:07.558Z,12.90
2019-06-01T06:54:07.571Z,15.30
2019-06-01T06:55:07.525Z,11.20
2019-06-01T06:56:07.523Z,11.40
2019-06-01T06:57:07.505Z,13.30
2019-06-01T06:58:07.510Z,12.10
2019-06-01T06:59:07.473Z,14.90
2019-06-01T07:00:07.488Z,12.30
2019-06-01T07:01:07.478Z,11.90
2019-06-01T07:02:07.464Z,12.50
2019-06-01T07:03:07.444Z,16.50
2019-06-01T07:04:12.613Z,13.20
2019-06-01T07:05:08.415Z,14.10
2019-06-01T07:06:07.407Z,13.40
2019-06-01T07:07:07.404Z,12.60
2019-06-01T07:08:07.399Z,12.90
2019-06-01T07:09:07.404Z,11.80
2019-06-01T07:10:07.363Z,12.10
2019-06-01T07:11:07.362Z,11.60
2019-06-01T07:12:07.368Z,12.70
2019-06-01T07:13:07.336Z,13.30
2019-06-01T07:14:07.336Z,12.80
2019-06-01T07:15:07.313Z,10.20
2019-06-01T07:16:07.307Z,11.00
2019-06-01T07:17:07.296Z,11.90
2019-06-01T07:18:07.337Z,9.40
2019-06-01T07:19:07.344Z,10.90
2019-06-01T07:20:07.275Z,10.10
2019-06-01T07:21:07.251Z,11.50
2019-06-01T07:22:07.246Z,10.40
2019-06-01T07:23:07.225Z,9.20
2019-06-01T07:24:07.293Z,10.20
2019-06-01T07:25:07.211Z,10.50
2019-06-01T07:26:07.218Z,7.80
2019-06-01T07:27:07.197Z,8.20
2019-06-01T07:28:07.192Z,15.40
2019-06-01T07:29:07.184Z,10.10
2019-06-01T07:30:07.191Z,8.60
2019-06-01T07:31:07.146Z,8.30
2019-06-01T07:32:07.152Z,8.70
2019-06-01T07:33:07.127Z,8.40
2019-06-01T07:34:07.108Z,10.80
2019-06-01T07:35:07.119Z,9.10
2019-06-01T07:36:07.088Z,10.60
2019-06-01T07:37:07.087Z,11.00
2019-06-01T07:38:07.067Z,9.80
2019-06-01T07:39:07.059Z,11.90
2019-06-01T07:40:10.433Z,11.00
2019-06-01T07:41:08.050Z,7.70
2019-06-01T07:42:07.050Z,9.40
2019-06-01T07:43:07.039Z,8.00
2019-06-01T07:44:07.021Z,8.50
2019-06-01T07:45:07.024Z,8.90
2019-06-01T07:46:06.989Z,8.30
2019-06-01T07:47:06.990Z,9.00
2019-06-01T07:48:06.972Z,10.60
2019-06-01T07:49:06.960Z,6.90
2019-06-01T07:50:06.975Z,9.60
2019-06-01T07:51:06.944Z,10.50
2019-06-01T07:52:12.800Z,8.50
2019-06-01T07:53:07.927Z,10.20
2019-06-01T07:54:06.910Z,9.10
2019-06-01T07:55:06.944Z,7.70
2019-06-01T07:56:06.897Z,10.90
2019-06-01T07:57:06.880Z,8.60
2019-06-01T07:58:06.876Z,11.60
2019-06-01T07:59:06.855Z,6.90
2019-06-01T08:00:06.859Z,7.70
2019-06-01T08:01:06.865Z,8.00
2019-06-01T08:02:06.837Z,8.30
2019-06-01T08:03:06.825Z,9.30
2019-06-01T08:04:06.811Z,7.60
2019-06-01T08:05:06.802Z,8.20
2019-06-01T08:06:06.797Z,6.60
2019-06-01T08:07:06.780Z,7.60
2019-06-01T08:08:06.777Z,6.50
2019-06-01T08:09:06.805Z,7.50
2019-06-01T08:10:06.773Z,9.50
2019-06-01T08:11:06.764Z,7.50
2019-06-01T08:12:06.730Z,8.40
2019-06-01T08:13:06.730Z,9.00
2019-06-01T08:14:06.717Z,7.50
2019-06-01T08:15:06.705Z,7.10
2019-06-01T08:16:06.710Z,8.90
2019-06-01T08:17:06.676Z,8.30
2019-06-01T08:18:06.677Z,7.60
2019-06-01T08:19:06.667Z,5.40
2019-06-01T08:20:06.648Z,7.50
2019-06-01T08:21:06.637Z,7.00
2019-06-01T08:22:06.670Z,10.10
2019-06-01T08:23:06.628Z,7.40
2019-06-01T08:24:06.637Z,5.70
2019-06-01T08:25:06.600Z,7.80
2019-06-01T08:26:06.597Z,6.40
2019-06-01T08:27:06.597Z,6.70
2019-06-01T08:28:06.575Z,6.10
2019-06-01T08:29:06.560Z,7.00
2019-06-01T08:30:06.557Z,6.30
2019-06-01T08:31:06.560Z,5.50
2019-06-01T08:32:06.558Z,5.80
2019-06-01T08:33:06.527Z,7.40
2019-06-01T08:34:06.550Z,5.90
2019-06-01T08:35:09.325Z,5.30
2019-06-01T08:36:06.512Z,6.90
2019-06-01T08:37:06.508Z,6.20
2019-06-01T08:38:06.475Z,8.40
2019-06-01T08:39:06.467Z,0.00
2019-06-01T08:40:06.464Z,0.00
2019-06-01T08:41:06.459Z,0.00
2019-06-01T08:42:06.465Z,0.00
2019-06-01T08:43:06.437Z,0.00
2019-06-01T08:44:06.421Z,0.00
2019-06-01T08:45:06.412Z,0.00
2019-06-01T08:46:06.413Z,0.00
2019-06-01T08:47:06.400Z,0.00
2019-06-01T08:48:06.395Z,0.00
2019-06-01T08:49:06.380Z,0.00
2019-06-01T08:50:06.376Z,0.00
2019-06-01T08:51:06.376Z,0.00
2019-06-01T08:52:06.388Z,0.00
2019-06-01T08:53:06.339Z,0.00
2019-06-01T08:54:06.339Z,0.00
2019-06-01T08:55:06.335Z,0.00
2019-06-01T08:56:06.323Z,0.00
2019-06-01T08:57:06.324Z,0.00
2019-06-01T08:58:06.328Z,0.00
2019-06-01T08:59:06.303Z,0.00
2019-06-01T09:00:06.279Z,0.00
2019-06-01T09:01:06.268Z,0.00
2019-06-01T09:02:06.261Z,0.00
2019-06-01T09:03:06.293Z,0.00
2019-06-01T09:04:06.239Z,0.00
2019-06-01T09:05:06.232Z,0.00
2019-06-01T09:06:06.234Z,0.00
2019-06-01T09:07:06.239Z,0.00
2019-06-01T09:08:06.217Z,0.00
2019-06-01T09:09:06.199Z,0.00
2019-06-01T09:10:06.184Z,0.00
2019-06-01T09:11:06.198Z,0.00
2019-06-01T09:12:06.185Z,0.00
2019-06-01T09:13:06.167Z,0.00
2019-06-01T09:14:06.176Z,0.00
2019-06-01T09:15:06.150Z,0.00
2019-06-01T09:16:06.143Z,0.00
2019-06-01T09:17:06.125Z,0.00
2019-06-01T09:18:06.120Z,0.00
2019-06-01T09:19:06.105Z,0.00
2019-06-01T09:20:06.113Z,0.00
2019-06-01T09:21:06.093Z,0.00
2019-06-01T09:22:06.098Z,0.00
2019-06-01T09:23:06.149Z,0.00
2019-06-01T09:24:06.055Z,0.00
2019-06-01T09:25:06.091Z,0.00
2019-06-01T09:26:06.049Z,0.00
2019-06-01T09:27:06.029Z,0.00
2019-06-01T09:28:06.036Z,0.00
2019-06-01T09:29:06.035Z,0.00
2019-06-01T09:30:06.011Z,0.00
2019-06-01T09:31:06.000Z,0.00
2019-06-01T09:32:10.631Z,0.00
2019-06-01T09:33:06.983Z,0.00
2019-06-01T09:34:05.973Z,0.00
2019-06-01T09:35:05.978Z,0.00
2019-06-01T09:36:05.979Z,0.00
2019-06-01T09:37:05.948Z,0.00
2019-06-01T09:38:05.944Z,0.00
2019-06-01T09:39:05.956Z,0.00
2019-06-01T09:40:05.925Z,0.00
2019-06-01T09:41:05.919Z,0.00
2019-06-01T09:42:05.894Z,0.00
2019-06-01T09:43:05.890Z,0.00
2019-06-01T09:44:05.903Z,0.00
2019-06-01T09:45:05.874Z,0.00
2019-06-01T09:46:05.880Z,0.00
2019-06-01T09:47:05.885Z,0.00
2019-06-01T09:48:05.854Z,0.00
2019-06-01T09:49:05.826Z,0.00
2019-06-01T09:50:05.831Z,0.00
2019-06-01T09:51:05.817Z,0.00
2019-06-01T09:52:05.816Z,0.00
2019-06-01T09:53:05.812Z,0.00
2019-06-01T09:54:05.802Z,0.00
2019-06-01T09:55:05.781Z,0.00
2019-06-01T09:56:05.775Z,0.00
2019-06-01T09:57:05.774Z,0.00
2019-06-01T09:58:05.814Z,0.00
2019-06-01T09:59:05.765Z,0.00
2019-06-01T10:00:05.738Z,0.00
2019-06-01T10:01:05.720Z,0.00
2019-06-01T10:02:05.720Z,0.00
2019-06-01T10:03:05.717Z,0.00
2019-06-01T10:04:05.706Z,0.00
2019-06-01T10:05:05.714Z,0.00
2019-06-01T10:06:05.682Z,0.00
2019-06-01T10:07:05.686Z,0.00
2019-06-01T10:08:05.663Z,0.00
2019-06-01T10:09:05.652Z,0.00
2019-06-01T10:10:05.687Z,0.00
2019-06-01T10:11:05.648Z,0.00
2019-06-01T10:12:05.643Z,0.00
2019-06-01T10:13:07.852Z,0.00
2019-06-01T10:14:05.626Z,0.00
2019-06-01T10:15:05.607Z,0.00
2019-06-01T10:16:05.616Z,0.00
2019-06-01T10:17:05.587Z,0.00
2019-06-01T10:18:05.604Z,0.00
2019-06-01T10:19:05.571Z,0.00
2019-06-01T10:20:05.575Z,0.00
2019-06-01T10:21:05.595Z,0.00
2019-06-01T10:22:05.567Z,0.00
2019-06-01T10:23:05.543Z,0.00
2019-06-01T10:24:05.529Z,0.00
2019-06-01T10:25:05.532Z,0.00
2019-06-01T10:26:05.519Z,0.00
2019-06-01T10:27:05.508Z,0.00
2019-06-01T10:28:05.541Z,0.00
2019-06-01T10:29:05.507Z,0.00
2019-06-01T10:30:05.489Z,0.00
2019-06-01T10:31:05.469Z,0.00
2019-06-01T10:32:05.485Z,0.00
2019-06-01T10:33:05.455Z,0.00
2019-06-01T10:34:05.645Z,0.00
2019-06-01T10:35:05.439Z,0.00
2019-06-01T10:36:20.041Z,0.00
2019-06-01T10:37:06.434Z,0.00
2019-06-01T10:38:05.410Z,0.00
2019-06-01T10:39:05.421Z,0.00
2019-06-01T10:40:05.396Z,0.00
2019-06-01T10:41:05.398Z,0.00
2019-06-01T10:42:05.399Z,0.00
2019-06-01T10:43:05.400Z,0.00
2019-06-01T10:44:05.359Z,0.00
2019-06-01T10:45:05.358Z,0.00
2019-06-01T10:46:05.404Z,0.00
2019-06-01T10:47:05.369Z,0.00
2019-06-01T10:48:05.337Z,0.00
2019-06-01T10:49:05.321Z,0.00
2019-06-01T10:50:05.332Z,0.00
2019-06-01T10:51:05.307Z,0.00
2019-06-01T10:52:05.301Z,0.00
2019-06-01T10:53:05.358Z,0.00
2019-06-01T10:54:05.279Z,0.00
2019-06-01T10:55:05.276Z,0.00
2019-06-01T10:56:05.261Z,0.00
2019-06-01T10:57:05.254Z,0.00
2019-06-01T10:58:05.285Z,0.00
2019-06-01T10:59:05.248Z,0.00
2019-06-01T11:00:05.237Z,0.00
2019-06-01T11:01:05.237Z,0.10
2019-06-01T11:02:05.226Z,0.10
2019-06-01T11:03:05.241Z,0.00
2019-06-01T11:04:05.200Z,0.00
2019-06-01T11:05:05.203Z,0.10
2019-06-01T11:06:05.188Z,0.10
2019-06-01T11:07:05.188Z,0.00
2019-06-01T11:08:05.175Z,0.10
2019-06-01T11:09:05.186Z,0.10
2019-06-01T11:10:05.164Z,0.00
2019-06-01T11:11:05.144Z,0.10
2019-06-01T11:12:05.142Z,0.00
2019-06-01T11:13:05.136Z,0.00
2019-06-01T11:14:05.163Z,0.00
2019-06-01T11:15:05.125Z,0.00
2019-06-01T11:16:05.114Z,0.00
2019-06-01T11:17:05.095Z,0.00
2019-06-01T11:18:05.090Z,0.00
2019-06-01T11:19:05.084Z,0.00
2019-06-01T11:20:05.093Z,0.00
2019-06-01T11:21:05.066Z,0.00
2019-06-01T11:22:05.060Z,0.00
2019-06-01T11:23:05.045Z,0.00
2019-06-01T11:24:05.039Z,0.00
2019-06-01T11:25:05.061Z,0.00
2019-06-01T11:26:05.022Z,0.00
2019-06-01T11:27:05.017Z,0.00
2019-06-01T11:28:05.002Z,0.00
2019-06-01T11:29:05.004Z,0.00
2019-06-01T11:30:05.003Z,0.00
2019-06-01T11:31:04.984Z,0.00
2019-06-01T11:32:04.972Z,0.00
2019-06-01T11:33:04.968Z,0.00
2019-06-01T11:34:04.950Z,0.00
2019-06-01T11:35:04.947Z,0.00
2019-06-01T11:36:04.954Z,0.00
2019-06-01T11:37:05.788Z,0.00
2019-06-01T11:38:04.929Z,0.00
2019-06-01T11:39:04.920Z,0.00
2019-06-01T11:40:04.914Z,0.00
2019-06-01T11:41:04.925Z,0.00
2019-06-01T11:42:04.893Z,0.00
2019-06-01T11:43:04.885Z,0.00
2019-06-01T11:44:04.888Z,0.00
2019-06-01T11:45:04.893Z,0.00
2019-06-01T11:46:04.875Z,0.00
2019-06-01T11:47:04.902Z,0.00
2019-06-01T11:48:04.868Z,0.00
2019-06-01T11:49:04.865Z,0.00
2019-06-01T11:50:04.847Z,0.00
2019-06-01T11:51:04.841Z,0.00
2019-06-01T11:52:04.868Z,0.00
2019-06-01T11:53:04.827Z,0.00
2019-06-01T11:54:04.835Z,0.00
2019-06-01T11:55:04.824Z,0.00
2019-06-01T11:56:04.813Z,0.00
2019-06-01T11:57:04.792Z,0.00
2019-06-01T11:58:04.840Z,0.00
2019-06-01T11:59:04.774Z,0.00
2019-06-01T12:00:04.764Z,0.00
2019-06-01T12:01:04.767Z,0.00
2019-06-01T12:02:04.754Z,0.00
2019-06-01T12:03:04.947Z,0.00
2019-06-01T12:04:04.741Z,0.00
2019-06-01T12:05:04.755Z,0.00
2019-06-01T12:06:04.730Z,0.00
2019-06-01T12:07:17.037Z,0.00
2019-06-01T12:08:05.745Z,0.00
2019-06-01T12:09:04.723Z,0.00
2019-06-01T12:10:04.734Z,0.00
2019-06-01T12:11:04.686Z,0.00
2019-06-01T12:12:04.692Z,0.00
2019-06-01T12:13:04.666Z,0.00
2019-06-01T12:14:04.677Z,0.00
2019-06-01T12:15:04.650Z,0.00
2019-06-01T12:16:04.644Z,0.00
2019-06-01T12:17:04.637Z,0.00
2019-06-01T12:18:04.633Z,0.00
2019-06-01T12:19:04.646Z,0.00
2019-06-01T12:20:04.611Z,0.00
2019-06-01T12:21:04.611Z,0.00
2019-06-01T12:22:04.619Z,0.00
2019-06-01T12:23:04.602Z,0.00
2019-06-01T12:24:04.643Z,0.00
2019-06-01T12:25:04.627Z,0.00
2019-06-01T12:26:04.569Z,0.00
2019-06-01T12:27:04.569Z,0.00
2019-06-01T12:28:04.564Z,0.00
2019-06-01T12:29:04.546Z,0.00
2019-06-01T12:30:04.561Z,0.00
2019-06-01T12:31:04.538Z,0.00
2019-06-01T12:32:04.549Z,0.00
2019-06-01T12:33:04.521Z,0.00
2019-06-01T12:34:04.604Z,0.00
2019-06-01T12:35:04.536Z,0.00
2019-06-01T12:36:04.502Z,0.00
2019-06-01T12:37:04.483Z,0.00
2019-06-01T12:38:06.954Z,0.00
2019-06-01T12:39:04.461Z,0.00
2019-06-01T12:40:07.586Z,0.00
2019-06-01T12:41:04.477Z,0.00
2019-06-01T12:42:04.442Z,0.00
2019-06-01T12:43:04.488Z,0.00
2019-06-01T12:44:04.465Z,0.00
2019-06-01T12:45:04.469Z,0.00
2019-06-01T12:46:07.784Z,0.00
2019-06-01T12:47:04.404Z,0.00
2019-06-01T12:48:04.383Z,0.00
2019-06-01T12:49:04.370Z,0.00
2019-06-01T12:50:04.402Z,0.00
2019-06-01T12:51:04.363Z,0.00
2019-06-01T12:52:04.349Z,0.00
2019-06-01T12:53:04.372Z,0.00
2019-06-01T12:54:04.315Z,0.00
2019-06-01T12:55:04.324Z,0.00
2019-06-01T12:56:04.324Z,0.00
2019-06-01T12:57:04.287Z,0.00
2019-06-01T12:58:04.285Z,0.00
2019-06-01T12:59:04.281Z,0.00
2019-06-01T13:00:04.263Z,0.00
2019-06-01T13:01:04.263Z,0.00
2019-06-01T13:02:04.233Z,0.00
2019-06-01T13:03:07.720Z,0.00